Date,TemperatureHighF,TemperatureAvgF,TemperatureLowF,DewpointHighF,DewpointAvgF,DewpointLowF,HumidityHigh,HumidityAvg,HumidityLow,PressureMaxIn,PressureMinIn,WindSpeedMaxMPH,WindSpeedAvgMPH,GustSpeedMaxMPH,PrecipitationSumIn
2013-12-1,56.0,33.1,20.0,35.0,26.0,20.0,99,81,33,0.00,40.00,10,2,0,0.00
2013-12-2,53.0,37.4,25.0,36.0,31.9,25.0,99,82,48,0.00,40.00,4,2,0,0.00
2013-12-3,56.0,44.8,34.0,48.0,41.8,33.0,99,89,65,0.00,40.00,8,2,0,0.01
2013-12-4,55.0,50.7,47.0,52.0,49.9,47.0,99,96,87,0.00,40.00,5,1,0,0.00
2013-12-5,62.0,56.3,51.0,60.0,55.9,51.0,99,98,86,0.00,40.00,5,2,0,0.06
2013-12-6,67.0,62.7,54.0,62.0,60.9,54.0,99,94,83,0.00,40.00,11,6,0,0.27
2013-12-7,54.0,45.9,39.0,53.0,41.6,-99.9,99,88,76,0.00,40.00,5,3,0,0.00
2013-12-8,38.0,34.6,32.0,37.0,34.3,32.0,99,98,93,0.00,40.00,5,2,0,0.07
2013-12-9,57.0,42.9,32.0,53.0,42.2,32.0,99,96,82,0.00,40.00,7,2,0,0.10
2013-12-10,44.0,37.2,28.0,44.0,33.3,14.0,99,86,52,0.00,40.00,6,3,0,0.15
2013-12-11,50.0,33.3,18.0,22.0,14.4,3.0,98,55,15,0.00,40.00,13,5,0,0.00
2013-12-12,37.0,29.2,23.0,19.0,13.2,2.0,76,53,22,0.00,40.00,10,4,0,0.00
2013-12-13,49.0,30.7,18.0,26.0,18.6,15.0,95,66,27,0.00,40.00,7,2,0,0.00
2013-12-14,40.0,36.0,33.0,40.0,31.2,-99.9,99,87,66,0.00,40.00,4,2,0,0.22
2013-12-15,44.0,34.1,29.0,43.0,30.2,25.0,99,85,78,0.00,40.00,14,6,0,0.01
2013-12-16,50.0,35.7,26.0,31.0,27.3,25.0,97,75,39,0.00,40.00,9,4,0,0.00
2013-12-17,55.0,40.1,27.0,36.0,28.7,22.0,99,68,36,0.00,40.00,22,9,0,0.00
2013-12-18,44.0,32.7,25.0,20.0,13.2,2.0,79,48,17,0.00,40.00,18,7,0,0.00
2013-12-19,63.0,36.3,21.0,33.0,24.7,19.0,94,70,22,0.00,40.00,5,1,0,0.00
2013-12-20,61.0,40.1,28.0,37.0,31.0,27.0,97,74,33,0.00,40.00,6,2,0,0.00
2013-12-21,59.0,47.4,33.0,59.0,45.2,-99.9,99,95,84,0.00,40.00,9,3,0,0.14
2013-12-22,61.0,56.7,54.0,60.0,56.4,54.0,99,98,94,0.00,40.00,11,5,0,1.31
2013-12-23,57.0,47.0,32.0,57.0,44.1,29.0,99,89,76,0.00,40.00,9,4,0,0.10
2013-12-24,31.0,26.2,17.0,29.0,21.0,15.0,99,81,55,0.00,40.00,12,4,0,0.00
2013-12-25,35.0,22.4,13.0,19.0,15.2,8.0,96,76,35,0.00,40.00,7,1,0,0.00
2013-12-26,45.0,27.9,16.0,26.0,19.4,15.0,96,74,35,0.00,40.00,10,3,0,0.00
2013-12-27,51.0,30.0,18.0,27.0,20.7,15.0,98,75,24,0.00,40.00,5,1,0,0.00
2013-12-28,48.0,31.8,18.0,39.0,24.5,-99.9,99,81,39,0.00,40.00,5,1,0,0.12
2013-12-29,49.0,41.1,37.0,44.0,38.2,33.0,99,89,74,0.00,40.00,19,5,0,0.33
2013-12-30,42.0,40.0,35.0,36.0,34.5,33.0,91,80,71,0.00,40.00,9,4,0,0.00
2013-12-31,39.0,31.6,23.0,33.0,20.5,15.0,94,65,40,0.00,40.00,10,4,0,0.00